Time;durP1;ratioP1;P1;durP2;ratioP2;P2;SDS_P1;SDS_P2;PMS_P1;PMS_P2;Temp;Humidity;BMP_temperature;BMP_pressure;BME280_temperature;BME280_humidity;BME280_pressure;Samples;Min_cycle;Max_cycle;Signal;HPM_P1;HPM_P2
2022/12/17 13:06:49;;;;;;;13.82;7.50;;;13.20;55.20;;;;;;5053328;28;20078;-78
2022/12/17 13:09:15;;;;;;;15.05;8.35;;;13.20;55.70;;;;;;5034760;28;20044;-79
2022/12/17 13:11:45;;;;;;;13.65;8.57;;;13.10;55.20;;;;;;5035108;28;20047;-78
2022/12/17 13:14:25;;;;;;;;;;;13.10;55.70;;;;;;5053477;28;20081;-78
2022/12/17 13:16:56;;;;;;;15.80;8.45;;;13.10;55.60;;;;;;5052853;28;19912;-79
2022/12/17 13:19:58;;;;;;;11.48;7.60;;;13.10;55.50;;;;;;5052840;28;20029;-78
2022/12/17 13:22:23;;;;;;;18.17;8.48;;;13.00;56.20;;;;;;5032752;28;20037;-75
2022/12/17 13:24:55;;;;;;;15.40;8.07;;;13.00;55.80;;;;;;5014859;28;20033;-75
2022/12/17 13:27:40;;;;;;;11.70;7.53;;;13.00;55.80;;;;;;5032452;28;20030;-75
2022/12/17 13:30:29;;;;;;;12.57;7.70;;;12.90;55.90;;;;;;5014950;28;20069;-74
2022/12/17 13:33:28;;;;;;;16.38;8.15;;;12.90;56.00;;;;;;5014982;28;20028;-75
2022/12/17 13:36:21;;;;;;;11.25;7.47;;;12.90;55.70;;;;;;5032952;28;20025;-75
2022/12/17 13:39:10;;;;;;;12.98;8.18;;;12.90;56.10;;;;;;5032590;28;20071;-76
2022/12/17 13:41:37;;;;;;;11.27;7.35;;;12.90;56.10;;;;;;5032446;28;20029;-75
2022/12/17 13:44:26;;;;;;;12.13;7.63;;;12.80;56.10;;;;;;5032401;28;20013;-75
2022/12/17 13:46:53;;;;;;;10.55;7.32;;;12.80;56.20;;;;;;5032546;28;20048;-74
2022/12/17 13:49:27;;;;;;;10.98;6.95;;;12.80;56.30;;;;;;5032679;28;20029;-75
2022/12/17 13:52:15;;;;;;;14.73;7.13;;;12.70;56.50;;;;;;5014587;28;20024;-75
2022/12/17 13:54:41;;;;;;;10.82;7.28;;;12.70;56.50;;;;;;5014734;28;20392;-75
2022/12/17 13:57:23;;;;;;;10.65;6.60;;;12.70;56.40;;;;;;5014717;28;20018;-75
2022/12/17 13:59:55;;;;;;;10.70;7.15;;;12.70;57.30;;;;;;5032332;28;20124;-75
2022/12/17 14:02:31;;;;;;;9.32;6.65;;;12.70;56.50;;;;;;5032541;28;20018;-74
2022/12/17 14:04:59;;;;;;;13.93;7.93;;;12.70;56.60;;;;;;5030014;28;20496;-75
2022/12/17 14:07:26;;;;;;;9.02;6.72;;;12.60;56.20;;;;;;5032196;28;20037;-74
2022/12/17 14:09:53;;;;;;;12.35;7.32;;;12.60;56.70;;;;;;5032056;28;20021;-74
2022/12/17 14:12:24;;;;;;;10.55;7.13;;;12.60;56.60;;;;;;5032133;28;20076;-75
2022/12/17 14:15:02;;;;;;;11.85;7.38;;;12.60;56.60;;;;;;5032216;28;20024;-74
2022/12/17 14:17:35;;;;;;;9.77;6.75;;;12.60;56.80;;;;;;5032232;28;20034;-74
2022/12/17 14:20:20;;;;;;;10.23;6.70;;;12.60;56.50;;;;;;5036476;28;20045;-75
2022/12/17 14:22:49;;;;;;;14.30;7.70;;;12.50;56.60;;;;;;5050655;28;20067;-74
2022/12/17 14:25:18;;;;;;;11.43;7.13;;;12.50;56.50;;;;;;5052019;28;20025;-74
2022/12/17 14:28:18;;;;;;;12.35;7.85;;;12.50;56.80;;;;;;5033840;28;20388;-75
2022/12/17 14:30:44;;;;;;;10.75;7.80;;;12.50;56.60;;;;;;5002886;28;20025;-76
2022/12/17 14:33:31;;;;;;;12.52;7.65;;;12.50;56.50;;;;;;5033995;28;20479;-76
2022/12/17 14:35:59;;;;;;;11.40;7.30;;;12.50;56.40;;;;;;5051823;28;20017;-76
2022/12/17 14:38:25;;;;;;;11.00;6.80;;;12.30;56.70;;;;;;5051804;28;20601;-76
2022/12/17 14:40:51;;;;;;;13.57;7.28;;;12.40;56.50;;;;;;5051756;28;20427;-75
2022/12/17 14:43:24;;;;;;;9.63;6.85;;;12.40;56.60;;;;;;5033968;28;20017;-76
2022/12/17 14:51:41;;;;;;;11.25;6.50;;;12.40;56.70;;;;;;5051746;28;20060;-72
2022/12/17 14:54:30;;;;;;;12.93;7.22;;;12.40;56.50;;;;;;5051546;28;20033;-71
2022/12/17 14:56:58;;;;;;;11.10;6.72;;;12.40;56.40;;;;;;5051466;28;20428;-72
2022/12/17 14:59:33;;;;;;;12.40;8.07;;;12.40;56.60;;;;;;5051619;28;20161;-71
2022/12/17 15:02:06;;;;;;;9.02;6.65;;;12.30;56.10;;;;;;5051418;28;20391;-73
2022/12/17 15:04:34;;;;;;;10.60;7.20;;;12.40;56.50;;;;;;5051592;28;20475;-72
2022/12/17 15:07:00;;;;;;;11.93;7.40;;;12.30;56.40;;;;;;5051446;28;20485;-71
2022/12/17 15:09:25;;;;;;;11.25;7.57;;;12.30;56.40;;;;;;5051739;28;20017;-71
2022/12/17 15:11:51;;;;;;;12.57;7.97;;;12.30;56.20;;;;;;5033738;28;20029;-72
2022/12/17 15:14:16;;;;;;;12.60;7.53;;;12.30;56.10;;;;;;5051499;28;20060;-71
2022/12/17 15:16:42;;;;;;;11.70;7.75;;;12.30;56.00;;;;;;5054448;28;20029;-72
2022/12/17 15:19:08;;;;;;;10.07;7.03;;;12.30;73.60;;;;;;5054964;28;20501;-71
2022/12/17 15:21:33;;;;;;;10.73;7.35;;;12.30;55.70;;;;;;5054840;28;20049;-71
2022/12/17 15:23:59;;;;;;;10.25;6.57;;;12.20;55.80;;;;;;5054923;28;20484;-72
2022/12/17 15:26:25;;;;;;;13.18;7.97;;;;;;;;;;5054931;28;20025;-78
2022/12/17 15:28:52;;;;;;;10.65;7.13;;;12.20;61.40;;;;;;5054801;28;20036;-72
2022/12/17 15:31:18;;;;;;;11.25;7.38;;;12.20;55.70;;;;;;5054813;28;20049;-72
2022/12/17 15:33:44;;;;;;;10.95;7.10;;;12.10;55.70;;;;;;5054844;28;20071;-72
2022/12/17 15:36:10;;;;;;;13.07;8.02;;;12.10;55.70;;;;;;5054749;28;20071;-71
2022/12/17 15:38:36;;;;;;;11.63;7.70;;;12.10;55.60;;;;;;5054672;28;20086;-71
2022/12/17 15:43:09;;;;;;;12.43;8.30;;;12.10;55.40;;;;;;5054626;28;20033;-71
2022/12/17 15:43:50;;;;;;;13.00;8.10;;;12.10;55.10;;;;;;5054614;28;20565;-72
2022/12/17 15:46:15;;;;;;;12.65;8.23;;;12.00;55.20;;;;;;5054630;28;20040;-72
2022/12/17 15:48:41;;;;;;;11.80;8.15;;;12.00;55.20;;;;;;5054363;28;20133;-72
2022/12/17 15:51:07;;;;;;;15.30;8.63;;;12.00;55.10;;;;;;5054042;28;20108;-71
2022/12/17 15:53:33;;;;;;;12.05;8.05;;;11.90;55.20;;;;;;5036358;28;20487;-72
2022/12/17 15:56:03;;;;;;;12.52;8.45;;;11.90;55.10;;;;;;5054124;28;20035;-71
2022/12/17 15:58:29;;;;;;;14.10;8.52;;;11.90;55.10;;;;;;5053163;28;20029;-72
2022/12/17 16:00:54;;;;;;;16.20;8.40;;;11.80;55.20;;;;;;5054104;28;20028;-72
2022/12/17 16:03:20;;;;;;;14.73;8.90;;;11.80;55.30;;;;;;5053995;28;20529;-79
2022/12/17 16:05:45;;;;;;;12.32;8.45;;;11.80;55.20;;;;;;5054025;28;20021;-71
2022/12/17 16:08:11;;;;;;;13.57;8.38;;;11.70;55.20;;;;;;5053874;28;20041;-72
2022/12/17 16:10:37;;;;;;;14.05;8.65;;;11.70;55.20;;;;;;5036158;28;20074;-72
2022/12/17 16:13:04;;;;;;;12.77;8.52;;;11.70;55.10;;;;;;5053932;28;20033;-72
2022/12/17 16:15:30;;;;;;;13.50;8.90;;;11.70;73.20;;;;;;5053777;28;20025;-72
2022/12/17 16:17:56;;;;;;;14.00;9.23;;;11.70;55.00;;;;;;5053776;28;20372;-71
2022/12/17 16:20:22;;;;;;;14.13;9.40;;;11.60;55.00;;;;;;5053328;28;20048;-71
2022/12/17 16:22:48;;;;;;;11.82;8.13;;;11.60;55.10;;;;;;5053983;28;20021;-79
2022/12/17 16:25:14;;;;;;;13.48;8.50;;;11.70;55.10;;;;;;5053871;28;20025;-78
2022/12/17 16:27:39;;;;;;;15.73;8.85;;;11.60;54.90;;;;;;5053181;28;20090;-79
2022/12/17 16:30:06;;;;;;;14.43;8.80;;;11.60;54.80;;;;;;5053774;28;20029;-79
2022/12/17 16:32:32;;;;;;;14.20;8.82;;;11.60;55.00;;;;;;5053567;28;20064;-79
2022/12/17 16:34:58;;;;;;;14.30;8.48;;;11.60;55.00;;;;;;5035781;28;20024;-78
2022/12/17 16:37:24;;;;;;;16.10;9.65;;;11.50;54.90;;;;;;5035725;28;20032;-79
2022/12/17 16:39:50;;;;;;;15.75;9.07;;;11.60;54.90;;;;;;5053909;28;20021;-79
2022/12/17 16:42:16;;;;;;;16.95;9.90;;;11.50;54.90;;;;;;5053501;28;20036;-72
2022/12/17 16:44:42;;;;;;;14.77;9.40;;;;;;;;;;5053348;28;20476;-72
2022/12/17 16:47:09;;;;;;;13.40;8.43;;;11.40;54.30;;;;;;5034963;28;20071;-72
2022/12/17 16:49:35;;;;;;;17.42;9.02;;;11.50;54.90;;;;;;5052781;28;20203;-72
2022/12/17 16:52:02;;;;;;;19.63;10.32;;;11.50;54.70;;;;;;5052777;28;20120;-72
2022/12/17 16:54:30;;;;;;;17.90;10.25;;;11.40;54.80;;;;;;5052706;28;20029;-72
2022/12/17 16:56:56;;;;;;;21.40;12.15;;;11.40;54.90;;;;;;5052962;28;20020;-72
2022/12/17 16:59:22;;;;;;;24.35;12.00;;;11.40;54.70;;;;;;5052996;28;20029;-80
2022/12/17 17:01:49;;;;;;;28.52;12.43;;;11.30;54.40;;;;;;5053057;28;20051;-80
2022/12/17 17:04:17;;;;;;;32.83;13.07;;;11.40;54.50;;;;;;5052942;28;20024;-80
2022/12/17 17:06:45;;;;;;;30.35;12.73;;;11.40;54.50;;;;;;5052981;28;20491;-80
2022/12/17 17:09:11;;;;;;;30.00;11.32;;;11.40;54.60;;;;;;5052942;28;20033;-80
2022/12/17 17:11:37;;;;;;;30.10;12.13;;;11.30;54.70;;;;;;5052845;28;20036;-80
2022/12/17 17:14:06;;;;;;;26.83;12.57;;;11.30;54.90;;;;;;5052895;28;20025;-80
2022/12/17 17:16:33;;;;;;;25.83;12.40;;;11.30;54.80;;;;;;5052710;28;20443;-80
2022/12/17 17:18:59;;;;;;;26.50;12.40;;;11.30;55.00;;;;;;5051692;28;20106;-80
2022/12/17 17:21:28;;;;;;;20.35;11.45;;;11.40;54.70;;;;;;5052558;28;20067;-81
2022/12/17 17:23:58;;;;;;;23.38;11.77;;;11.30;54.60;;;;;;5052681;28;20021;-78
2022/12/17 17:26:26;;;;;;;23.77;10.52;;;11.30;54.50;;;;;;5052618;28;20090;-79
2022/12/17 17:28:52;;;;;;;21.73;12.00;;;11.30;54.60;;;;;;5052610;28;20044;-79
2022/12/17 17:31:18;;;;;;;23.20;13.02;;;11.20;55.20;;;;;;5052390;28;20108;-79
2022/12/17 17:33:47;;;;;;;24.73;12.70;;;11.20;55.20;;;;;;5052466;28;20385;-80
2022/12/17 17:36:17;;;;;;;22.55;14.13;;;11.20;54.60;;;;;;5052368;28;20020;-71
2022/12/17 17:38:43;;;;;;;25.33;13.00;;;11.20;72.40;;;;;;5051713;28;20029;-71
2022/12/17 17:41:12;;;;;;;23.25;13.40;;;11.30;72.50;;;;;;5051891;28;20107;-71
2022/12/17 17:43:38;;;;;;;20.90;12.68;;;11.20;54.10;;;;;;5051773;28;20025;-72
2022/12/17 17:46:24;;;;;;;23.15;12.82;;;11.20;54.50;;;;;;5051781;28;20029;-71
2022/12/17 17:48:50;;;;;;;19.95;12.23;;;11.20;54.30;;;;;;5051583;28;20106;-72
2022/12/17 17:51:18;;;;;;;22.80;12.27;;;11.20;54.30;;;;;;5051687;28;20108;-71
2022/12/17 17:53:46;;;;;;;19.60;11.48;;;11.10;54.20;;;;;;5051674;28;20028;-71
2022/12/17 17:56:17;;;;;;;22.33;13.32;;;11.20;54.40;;;;;;5052110;28;20032;-77
2022/12/17 17:58:51;;;;;;;20.35;11.95;;;11.10;54.20;;;;;;5034364;28;20021;-80
2022/12/17 18:01:23;;;;;;;21.55;12.05;;;11.10;54.20;;;;;;5052324;28;20114;-83
2022/12/17 18:03:50;;;;;;;20.77;11.85;;;11.10;53.50;;;;;;5034226;28;20021;-80
2022/12/17 18:06:15;;;;;;;18.55;11.82;;;11.10;54.70;;;;;;5052158;28;20056;-83
2022/12/17 18:08:42;;;;;;;17.02;10.45;;;11.10;54.20;;;;;;5052166;28;20483;-83
2022/12/17 18:11:11;;;;;;;19.15;11.48;;;11.20;54.30;;;;;;5052362;28;20021;-83
2022/12/17 18:13:55;;;;;;;18.15;10.35;;;11.10;54.30;;;;;;5052106;28;20064;-83
2022/12/17 18:16:28;;;;;;;21.50;11.32;;;11.10;54.20;;;;;;5052265;28;20032;-83
2022/12/17 18:18:56;;;;;;;15.25;9.82;;;11.20;54.50;;;;;;5052196;28;20029;-83
2022/12/17 18:21:22;;;;;;;18.73;10.73;;;11.10;54.60;;;;;;5051938;28;20053;-83
2022/12/17 18:23:48;;;;;;;21.15;12.05;;;;;;;;;;5052167;28;20159;-83
2022/12/17 18:26:19;;;;;;;18.58;11.35;;;11.10;53.40;;;;;;5052234;28;20483;-83
2022/12/17 18:28:46;;;;;;;18.63;10.63;;;11.10;54.00;;;;;;5052065;28;20047;-83
2022/12/17 18:31:18;;;;;;;17.60;10.23;;;11.10;55.00;;;;;;5034114;28;20024;-82
2022/12/17 18:33:51;;;;;;;16.25;10.68;;;11.30;53.90;;;;;;5051948;28;20033;-82
2022/12/17 18:36:27;;;;;;;18.85;11.10;;;12.30;54.40;;;;;;5052054;28;20108;-82
2022/12/17 18:39:04;;;;;;;17.33;9.93;;;11.10;53.80;;;;;;5051922;28;20087;-82
2022/12/17 18:44:15;;;;;;;16.08;9.40;;;11.20;53.90;;;;;;5051917;28;20039;-83
2022/12/17 18:46:41;;;;;;;13.30;9.07;;;11.10;53.70;;;;;;5051928;28;20021;-83
2022/12/17 18:49:10;;;;;;;16.05;10.18;;;11.00;55.30;;;;;;5051889;28;20033;-73
2022/12/17 18:51:37;;;;;;;16.50;9.27;;;11.20;53.80;;;;;;5055121;28;20017;-82
2022/12/17 18:54:05;;;;;;;14.70;9.73;;;11.20;53.70;;;;;;5055672;28;20033;-82
2022/12/17 18:56:32;;;;;;;14.30;9.05;;;11.10;53.80;;;;;;5055680;28;20107;-83
2022/12/17 18:58:57;;;;;;;14.68;9.57;;;11.10;54.10;;;;;;5055512;28;20037;-83
2022/12/17 19:01:26;;;;;;;15.20;9.05;;;11.10;54.10;;;;;;5055476;28;20031;-82
2022/12/17 19:03:52;;;;;;;14.63;8.95;;;11.10;54.10;;;;;;5037605;28;20032;-84
2022/12/17 19:06:19;;;;;;;13.27;8.35;;;11.10;54.30;;;;;;5055606;28;20066;-85
2022/12/17 19:08:44;;;;;;;16.27;9.75;;;11.00;72.30;;;;;;5055481;28;20139;-88
2022/12/17 19:11:11;;;;;;;14.48;8.90;;;11.10;54.10;;;;;;5055607;28;20041;-84
2022/12/17 19:13:37;;;;;;;13.80;9.40;;;11.10;54.20;;;;;;5055338;28;20089;-82
2022/12/17 19:16:08;;;;;;;13.68;8.95;;;11.20;54.40;;;;;;5055223;28;20101;-81
2022/12/17 19:18:33;;;;;;;12.98;8.57;;;11.10;54.30;;;;;;5055295;28;20032;-82
2022/12/17 19:20:59;;;;;;;15.00;8.75;;;11.10;54.20;;;;;;5054980;28;20045;-82
2022/12/17 19:23:26;;;;;;;14.98;9.52;;;11.10;54.40;;;;;;5055107;28;20132;-81
2022/12/17 19:25:51;;;;;;;14.77;8.82;;;11.10;54.30;;;;;;5055075;28;20029;-72
2022/12/17 19:28:17;;;;;;;12.82;8.38;;;11.10;54.30;;;;;;5055180;28;20037;-82
2022/12/17 19:30:43;;;;;;;12.85;8.25;;;11.10;55.00;;;;;;5054962;28;20025;-81
2022/12/17 19:33:09;;;;;;;11.75;7.88;;;11.10;54.50;;;;;;5055145;28;20103;-81
2022/12/17 19:35:35;;;;;;;14.02;8.82;;;11.10;54.40;;;;;;5054890;28;20074;-81
2022/12/17 19:38:01;;;;;;;13.13;8.68;;;11.10;54.40;;;;;;5054713;28;20107;-81
2022/12/17 19:40:26;;;;;;;13.13;8.18;;;11.20;54.30;;;;;;5054780;28;20100;-82
2022/12/17 19:42:55;;;;;;;14.40;9.15;;;11.20;54.40;;;;;;5054675;28;20482;-82
2022/12/17 19:45:21;;;;;;;13.05;8.88;;;11.10;54.40;;;;;;5054590;28;20033;-81
2022/12/17 19:47:47;;;;;;;13.38;8.43;;;11.00;72.50;;;;;;5054588;28;20037;-81
2022/12/17 19:50:13;;;;;;;14.25;8.90;;;11.10;54.60;;;;;;5054489;28;20066;-81
2022/12/17 19:52:39;;;;;;;13.40;8.13;;;11.10;54.20;;;;;;5054612;28;20064;-81
2022/12/17 19:55:05;;;;;;;14.40;9.18;;;11.10;54.30;;;;;;5054690;28;20060;-81
2022/12/17 19:57:33;;;;;;;13.80;8.50;;;11.10;54.30;;;;;;5054554;28;20040;-82
2022/12/17 19:59:59;;;;;;;14.82;8.98;;;11.20;54.30;;;;;;5054249;28;20029;-81
2022/12/17 20:02:24;;;;;;;12.77;8.68;;;11.20;72.20;;;;;;5054290;28;20487;-81
2022/12/17 20:04:50;;;;;;;13.40;8.70;;;;;;;;;;5036251;28;20025;-81
2022/12/17 20:07:16;;;;;;;13.07;8.68;;;11.10;53.50;;;;;;5054157;28;20407;-81
2022/12/17 20:09:44;;;;;;;14.63;9.23;;;11.10;54.20;;;;;;5054269;28;20025;-81
2022/12/17 20:12:11;;;;;;;14.85;9.57;;;11.20;54.10;;;;;;5054067;28;20060;-81
2022/12/17 20:14:36;;;;;;;15.07;9.10;;;11.10;54.00;;;;;;5054090;28;20056;-81
2022/12/17 20:17:03;;;;;;;14.18;9.73;;;11.10;53.90;;;;;;5054002;28;20060;-81
2022/12/17 20:19:31;;;;;;;13.88;8.93;;;11.20;54.20;;;;;;5053655;28;20110;-81
2022/12/17 20:22:01;;;;;;;15.35;9.13;;;11.10;54.10;;;;;;5053674;28;20045;-73
2022/12/17 20:24:27;;;;;;;14.15;8.25;;;11.10;53.90;;;;;;5053597;28;20033;-72
2022/12/17 20:26:53;;;;;;;15.50;9.00;;;11.10;54.00;;;;;;5053409;28;20105;-73
2022/12/17 20:29:21;;;;;;;13.88;9.05;;;11.10;54.00;;;;;;5053384;28;20029;-73
2022/12/17 20:31:47;;;;;;;11.45;7.72;;;11.20;54.30;;;;;;5053230;28;20055;-73
2022/12/17 20:34:14;;;;;;;12.30;8.40;;;11.20;54.00;;;;;;5053155;28;20029;-72
2022/12/17 20:36:40;;;;;;;12.50;8.48;;;;;;;;;;5053231;28;20108;-73
2022/12/17 20:39:07;;;;;;;12.80;8.23;;;11.20;53.40;;;;;;5035246;28;20029;-73
2022/12/17 20:41:35;;;;;;;11.50;7.95;;;11.20;54.00;;;;;;5053233;28;20025;-72
2022/12/17 20:44:06;;;;;;;12.90;8.20;;;11.10;53.70;;;;;;5035180;28;20043;-73
2022/12/17 20:46:32;;;;;;;11.98;7.85;;;11.20;53.70;;;;;;5035119;28;20036;-73
2022/12/17 20:48:59;;;;;;;14.05;8.27;;;11.20;53.90;;;;;;5052921;28;20037;-73
2022/12/17 20:51:26;;;;;;;11.73;7.40;;;11.20;53.90;;;;;;5034987;28;20381;-72
2022/12/17 20:53:54;;;;;;;12.77;7.88;;;11.10;53.80;;;;;;5052960;28;20029;-73
2022/12/17 20:56:28;;;;;;;12.75;8.48;;;11.20;53.80;;;;;;5052859;28;20021;-72
2022/12/17 20:58:59;;;;;;;12.82;7.75;;;11.20;53.70;;;;;;5034969;28;20025;-81
2022/12/17 21:01:26;;;;;;;11.98;7.72;;;11.20;53.70;;;;;;5035097;28;20529;-80
2022/12/17 21:03:53;;;;;;;14.88;8.82;;;11.30;53.70;;;;;;5053134;28;20021;-81
2022/12/17 21:06:31;;;;;;;12.32;7.82;;;11.20;53.70;;;;;;5052897;28;20025;-80
2022/12/17 21:08:57;;;;;;;13.20;8.35;;;11.10;72.00;;;;;;5035022;28;20091;-81
2022/12/17 21:11:25;;;;;;;13.05;8.10;;;11.20;53.80;;;;;;5052678;28;20551;-81
2022/12/17 21:13:52;;;;;;;12.77;8.43;;;11.20;53.70;;;;;;5052359;28;20032;-80
2022/12/17 21:16:22;;;;;;;10.50;7.05;;;11.10;53.60;;;;;;5034951;28;20029;-72
2022/12/17 21:18:48;;;;;;;15.25;8.90;;;11.10;71.70;;;;;;5052687;28;20104;-79
2022/12/17 21:21:20;;;;;;;16.70;8.88;;;11.20;53.60;;;;;;5052676;28;20080;-79
2022/12/17 21:23:47;;;;;;;14.50;8.65;;;11.20;53.60;;;;;;5052701;28;20057;-79
2022/12/17 21:26:30;;;;;;;12.60;7.90;;;11.20;53.80;;;;;;5052756;28;20108;-79
2022/12/17 21:28:56;;;;;;;14.10;8.38;;;11.20;53.90;;;;;;5052640;28;20120;-79
2022/12/17 21:31:23;;;;;;;18.52;9.25;;;11.20;54.00;;;;;;5052674;28;20057;-80
2022/12/17 21:33:50;;;;;;;14.65;8.77;;;11.20;53.90;;;;;;5052569;28;20033;-80
2022/12/17 21:36:18;;;;;;;13.32;8.15;;;11.20;54.00;;;;;;5052551;28;20660;-81
2022/12/17 21:38:44;;;;;;;15.43;8.90;;;;;;;;;;5052510;28;20070;-75
2022/12/17 21:41:16;;;;;;;13.63;8.70;;;11.10;53.50;;;;;;5052547;28;20075;-77
2022/12/17 21:43:41;;;;;;;14.18;8.13;;;11.10;53.80;;;;;;5052465;28;20021;-78
2022/12/17 21:46:09;;;;;;;12.50;7.90;;;11.10;53.30;;;;;;5052448;28;20039;-79
2022/12/17 21:48:37;;;;;;;13.55;8.07;;;11.10;53.80;;;;;;5052234;28;20028;-78
2022/12/17 21:51:07;;;;;;;14.35;7.72;;;11.10;53.70;;;;;;5052418;28;20033;-78
2022/12/17 21:53:32;;;;;;;13.70;8.23;;;11.10;53.80;;;;;;5052392;28;20036;-78
2022/12/17 21:56:06;;;;;;;12.68;7.78;;;11.00;71.80;;;;;;5052467;28;20025;-79
2022/12/17 21:58:32;;;;;;;13.73;8.10;;;11.10;53.80;;;;;;5034474;28;20032;-79
2022/12/17 22:01:06;;;;;;;13.10;8.30;;;11.10;53.90;;;;;;5052559;28;20024;-79
2022/12/17 22:03:31;;;;;;;13.35;7.78;;;11.10;53.70;;;;;;5052315;28;20025;-76
2022/12/17 22:06:07;;;;;;;11.48;6.93;;;11.10;53.80;;;;;;5052260;28;20032;-77
2022/12/17 22:08:33;;;;;;;15.10;7.97;;;11.10;54.40;;;;;;5052075;28;20068;-77
2022/12/17 22:10:58;;;;;;;14.75;7.47;;;11.10;53.90;;;;;;5051761;28;20085;-77
2022/12/17 22:16:08;;;;;;;13.07;7.93;;;11.00;53.80;;;;;;5051838;28;20075;-78
2022/12/17 22:18:34;;;;;;;12.55;8.32;;;11.00;53.90;;;;;;5051959;28;20029;-78
2022/12/17 22:21:00;;;;;;;13.65;8.20;;;11.00;53.80;;;;;;5051695;28;20048;-79
2022/12/17 22:23:26;;;;;;;12.43;7.20;;;11.00;54.10;;;;;;5052082;28;20057;-78
2022/12/17 22:25:51;;;;;;;12.85;8.10;;;11.00;53.90;;;;;;5053876;28;20487;-78
2022/12/17 22:28:17;;;;;;;12.52;8.25;;;11.10;54.50;;;;;;5037953;28;20071;-79
2022/12/17 22:33:27;;;;;;;11.48;6.75;;;11.10;53.80;;;;;;5056053;28;20032;-74
2022/12/17 22:35:52;;;;;;;13.65;7.70;;;11.10;53.90;;;;;;5055808;28;20020;-75
2022/12/17 22:38:18;;;;;;;12.10;7.85;;;11.00;54.00;;;;;;5055878;28;20104;-75
2022/12/17 22:40:43;;;;;;;12.10;7.45;;;10.90;54.10;;;;;;5056041;28;20021;-75
2022/12/17 22:43:31;;;;;;;14.15;7.47;;;10.90;54.40;;;;;;5056032;28;20468;-75
2022/12/17 22:46:03;;;;;;;11.70;7.32;;;11.00;54.20;;;;;;5054710;28;20017;-75
2022/12/17 22:48:30;;;;;;;14.13;7.90;;;10.90;54.30;;;;;;5055194;28;20066;-79
2022/12/17 22:50:56;;;;;;;17.83;7.75;;;10.90;54.30;;;;;;5038164;28;20025;-72
2022/12/17 22:53:23;;;;;;;11.70;7.82;;;10.90;54.30;;;;;;5055676;28;20150;-71
2022/12/17 22:55:50;;;;;;;13.77;7.53;;;10.90;54.30;;;;;;5055765;28;20035;-72
2022/12/17 22:58:16;;;;;;;10.63;6.70;;;10.90;54.20;;;;;;5055477;28;20507;-72
2022/12/17 23:00:42;;;;;;;13.55;7.55;;;10.90;54.20;;;;;;5055428;28;20032;-72
2022/12/17 23:03:07;;;;;;;11.45;7.00;;;10.90;54.20;;;;;;5055533;28;20029;-72
2022/12/17 23:05:33;;;;;;;12.85;7.10;;;10.90;54.20;;;;;;5055440;28;20028;-72
2022/12/17 23:07:59;;;;;;;10.02;7.13;;;10.90;54.30;;;;;;5055339;28;20127;-72
2022/12/17 23:10:27;;;;;;;12.77;7.32;;;10.90;54.20;;;;;;5055351;28;20064;-72
2022/12/17 23:12:54;;;;;;;11.30;6.55;;;10.90;54.20;;;;;;5055200;28;20020;-72
2022/12/17 23:15:29;;;;;;;12.70;6.75;;;10.90;54.30;;;;;;5055169;28;20078;-72
2022/12/17 23:17:57;;;;;;;12.45;7.10;;;10.80;54.20;;;;;;5055617;28;20025;-72
2022/12/17 23:20:23;;;;;;;14.07;8.18;;;10.80;54.20;;;;;;5054847;28;20045;-72
2022/12/17 23:22:49;;;;;;;10.45;7.05;;;10.80;54.30;;;;;;5055108;28;20025;-72
2022/12/17 23:25:15;;;;;;;13.43;7.60;;;10.90;54.30;;;;;;5055593;28;20383;-86
2022/12/17 23:27:42;;;;;;;13.93;7.90;;;10.80;54.20;;;;;;5055269;28;20455;-72
2022/12/17 23:30:08;;;;;;;11.73;7.43;;;10.80;54.30;;;;;;5037203;28;20017;-73
2022/12/17 23:32:34;;;;;;;14.15;7.80;;;10.80;54.30;;;;;;5055197;28;20025;-73
2022/12/17 23:34:59;;;;;;;12.65;7.72;;;10.80;54.30;;;;;;5054892;28;20147;-73
2022/12/17 23:37:25;;;;;;;11.30;6.97;;;10.80;54.30;;;;;;5054436;28;20112;-73
2022/12/17 23:39:51;;;;;;;15.80;8.18;;;10.90;54.30;;;;;;5054712;28;20107;-73
2022/12/17 23:42:16;;;;;;;12.98;7.65;;;10.80;54.30;;;;;;5054700;28;20176;-73
2022/12/17 23:44:42;;;;;;;14.40;7.72;;;10.80;54.20;;;;;;5054778;28;20452;-73
2022/12/17 23:47:08;;;;;;;13.80;8.13;;;10.80;54.20;;;;;;5054527;28;20025;-73
2022/12/17 23:49:34;;;;;;;14.40;7.13;;;;;;;;;;5054617;28;20025;-73
2022/12/17 23:52:00;;;;;;;13.75;8.02;;;10.70;53.70;;;;;;5054649;28;20033;-73
2022/12/17 23:54:25;;;;;;;11.57;7.15;;;10.70;54.20;;;;;;5054555;28;20564;-73
2022/12/17 23:56:51;;;;;;;12.48;7.72;;;;;;;;;;5054493;28;20028;-73
2022/12/17 23:59:17;;;;;;;12.88;7.72;;;10.80;53.70;;;;;;5054400;28;20087;-73
